sensor_id;sensor_type;location;lat;lon;timestamp;P1;durP1;ratioP1;P2;durP2;ratioP2
13693;SDS011;6919;52.344;14.518;2024-02-23T00:01:39;1.10;;;1.07;;
13693;SDS011;6919;52.344;14.518;2024-02-23T00:04:08;1.30;;;1.20;;
13693;SDS011;6919;52.344;14.518;2024-02-23T00:06:37;2.30;;;1.30;;
13693;SDS011;6919;52.344;14.518;2024-02-23T00:09:06;1.87;;;1.13;;
13693;SDS011;6919;52.344;14.518;2024-02-23T00:11:34;2.80;;;1.10;;
13693;SDS011;6919;52.344;14.518;2024-02-23T00:14:06;2.13;;;1.10;;
13693;SDS011;6919;52.344;14.518;2024-02-23T00:16:37;1.43;;;1.07;;
13693;SDS011;6919;52.344;14.518;2024-02-23T00:19:07;1.87;;;1.07;;
13693;SDS011;6919;52.344;14.518;2024-02-23T00:21:38;1.30;;;1.20;;
13693;SDS011;6919;52.344;14.518;2024-02-23T00:24:08;1.70;;;1.10;;
13693;SDS011;6919;52.344;14.518;2024-02-23T00:26:36;1.23;;;1.10;;
13693;SDS011;6919;52.344;14.518;2024-02-23T00:29:05;1.00;;;0.90;;
13693;SDS011;6919;52.344;14.518;2024-02-23T00:31:34;4.03;;;1.10;;
13693;SDS011;6919;52.344;14.518;2024-02-23T00:34:05;0.90;;;0.90;;
13693;SDS011;6919;52.344;14.518;2024-02-23T00:36:39;1.10;;;1.00;;
13693;SDS011;6919;52.344;14.518;2024-02-23T00:39:08;1.20;;;1.10;;
13693;SDS011;6919;52.344;14.518;2024-02-23T00:41:37;0.80;;;0.80;;
13693;SDS011;6919;52.344;14.518;2024-02-23T00:44:05;1.13;;;0.90;;
13693;SDS011;6919;52.344;14.518;2024-02-23T00:46:33;0.90;;;0.90;;
13693;SDS011;6919;52.344;14.518;2024-02-23T00:49:02;1.23;;;1.00;;
13693;SDS011;6919;52.344;14.518;2024-02-23T00:51:30;1.03;;;0.93;;
13693;SDS011;6919;52.344;14.518;2024-02-23T00:54:00;0.80;;;0.80;;
13693;SDS011;6919;52.344;14.518;2024-02-23T00:56:28;1.20;;;0.97;;
13693;SDS011;6919;52.344;14.518;2024-02-23T00:59:10;1.30;;;1.20;;
13693;SDS011;6919;52.344;14.518;2024-02-23T01:01:39;0.70;;;0.70;;
13693;SDS011;6919;52.344;14.518;2024-02-23T01:04:07;1.00;;;0.80;;
13693;SDS011;6919;52.344;14.518;2024-02-23T01:06:36;2.00;;;0.90;;
13693;SDS011;6919;52.344;14.518;2024-02-23T01:09:06;0.70;;;0.70;;
13693;SDS011;6919;52.344;14.518;2024-02-23T01:11:35;1.10;;;1.00;;
13693;SDS011;6919;52.344;14.518;2024-02-23T01:14:03;0.77;;;0.70;;
13693;SDS011;6919;52.344;14.518;2024-02-23T01:16:33;1.23;;;1.10;;
13693;SDS011;6919;52.344;14.518;2024-02-23T01:19:01;1.80;;;0.80;;
13693;SDS011;6919;52.344;14.518;2024-02-23T01:21:30;1.57;;;1.10;;
13693;SDS011;6919;52.344;14.518;2024-02-23T01:23:59;0.97;;;0.93;;
13693;SDS011;6919;52.344;14.518;2024-02-23T01:26:29;1.07;;;0.80;;
13693;SDS011;6919;52.344;14.518;2024-02-23T01:28:58;0.80;;;0.80;;
13693;SDS011;6919;52.344;14.518;2024-02-23T01:31:26;0.70;;;0.70;;
13693;SDS011;6919;52.344;14.518;2024-02-23T01:33:54;0.80;;;0.77;;
13693;SDS011;6919;52.344;14.518;2024-02-23T01:36:23;1.40;;;1.10;;
13693;SDS011;6919;52.344;14.518;2024-02-23T01:38:52;1.60;;;0.90;;
13693;SDS011;6919;52.344;14.518;2024-02-23T01:41:21;2.97;;;0.90;;
13693;SDS011;6919;52.344;14.518;2024-02-23T01:43:51;1.10;;;1.00;;
13693;SDS011;6919;52.344;14.518;2024-02-23T01:46:19;1.90;;;1.10;;
13693;SDS011;6919;52.344;14.518;2024-02-23T01:48:47;0.67;;;0.63;;
13693;SDS011;6919;52.344;14.518;2024-02-23T01:51:16;1.70;;;1.30;;
13693;SDS011;6919;52.344;14.518;2024-02-23T01:53:45;1.00;;;0.90;;
13693;SDS011;6919;52.344;14.518;2024-02-23T01:56:14;3.30;;;1.03;;
13693;SDS011;6919;52.344;14.518;2024-02-23T01:58:46;1.20;;;1.10;;
13693;SDS011;6919;52.344;14.518;2024-02-23T02:01:17;1.03;;;0.80;;
13693;SDS011;6919;52.344;14.518;2024-02-23T02:03:45;1.00;;;0.90;;
13693;SDS011;6919;52.344;14.518;2024-02-23T02:06:13;0.87;;;0.80;;
13693;SDS011;6919;52.344;14.518;2024-02-23T02:08:42;1.57;;;0.97;;
13693;SDS011;6919;52.344;14.518;2024-02-23T02:11:11;0.90;;;0.90;;
13693;SDS011;6919;52.344;14.518;2024-02-23T02:13:39;1.00;;;0.90;;
13693;SDS011;6919;52.344;14.518;2024-02-23T02:16:08;0.83;;;0.83;;
13693;SDS011;6919;52.344;14.518;2024-02-23T02:18:39;0.90;;;0.90;;
13693;SDS011;6919;52.344;14.518;2024-02-23T02:21:07;1.30;;;0.90;;
13693;SDS011;6919;52.344;14.518;2024-02-23T02:23:35;1.43;;;1.27;;
13693;SDS011;6919;52.344;14.518;2024-02-23T02:26:04;0.90;;;0.90;;
13693;SDS011;6919;52.344;14.518;2024-02-23T02:28:32;1.03;;;0.83;;
13693;SDS011;6919;52.344;14.518;2024-02-23T02:31:01;0.97;;;0.87;;
13693;SDS011;6919;52.344;14.518;2024-02-23T02:33:29;0.80;;;0.80;;
13693;SDS011;6919;52.344;14.518;2024-02-23T02:35:59;0.77;;;0.77;;
13693;SDS011;6919;52.344;14.518;2024-02-23T02:38:27;0.67;;;0.67;;
13693;SDS011;6919;52.344;14.518;2024-02-23T02:40:56;0.80;;;0.80;;
13693;SDS011;6919;52.344;14.518;2024-02-23T02:43:26;0.80;;;0.80;;
13693;SDS011;6919;52.344;14.518;2024-02-23T02:45:55;1.50;;;1.00;;
13693;SDS011;6919;52.344;14.518;2024-02-23T02:48:24;2.33;;;1.27;;
13693;SDS011;6919;52.344;14.518;2024-02-23T02:50:52;0.50;;;0.50;;
13693;SDS011;6919;52.344;14.518;2024-02-23T02:53:22;1.83;;;1.10;;
13693;SDS011;6919;52.344;14.518;2024-02-23T02:55:50;3.17;;;1.00;;
13693;SDS011;6919;52.344;14.518;2024-02-23T02:58:18;1.57;;;1.10;;
13693;SDS011;6919;52.344;14.518;2024-02-23T03:00:46;0.83;;;0.80;;
13693;SDS011;6919;52.344;14.518;2024-02-23T03:03:15;0.73;;;0.70;;
13693;SDS011;6919;52.344;14.518;2024-02-23T03:05:43;0.77;;;0.77;;
13693;SDS011;6919;52.344;14.518;2024-02-23T03:08:11;0.73;;;0.70;;
13693;SDS011;6919;52.344;14.518;2024-02-23T03:10:41;1.90;;;0.73;;
13693;SDS011;6919;52.344;14.518;2024-02-23T03:13:09;0.60;;;0.60;;
13693;SDS011;6919;52.344;14.518;2024-02-23T03:15:38;1.37;;;0.53;;
13693;SDS011;6919;52.344;14.518;2024-02-23T03:18:06;0.60;;;0.60;;
13693;SDS011;6919;52.344;14.518;2024-02-23T03:20:36;0.30;;;0.30;;
13693;SDS011;6919;52.344;14.518;2024-02-23T03:23:04;0.60;;;0.50;;
13693;SDS011;6919;52.344;14.518;2024-02-23T03:25:32;0.50;;;0.50;;
13693;SDS011;6919;52.344;14.518;2024-02-23T03:28:02;0.40;;;0.40;;
13693;SDS011;6919;52.344;14.518;2024-02-23T03:30:31;0.73;;;0.70;;
13693;SDS011;6919;52.344;14.518;2024-02-23T03:33:02;1.20;;;0.60;;
13693;SDS011;6919;52.344;14.518;2024-02-23T03:35:31;1.57;;;0.83;;
13693;SDS011;6919;52.344;14.518;2024-02-23T03:37:59;1.03;;;0.50;;
13693;SDS011;6919;52.344;14.518;2024-02-23T03:40:28;0.40;;;0.40;;
13693;SDS011;6919;52.344;14.518;2024-02-23T03:42:56;0.47;;;0.30;;
13693;SDS011;6919;52.344;14.518;2024-02-23T03:45:26;0.30;;;0.30;;
13693;SDS011;6919;52.344;14.518;2024-02-23T03:47:55;0.90;;;0.43;;
13693;SDS011;6919;52.344;14.518;2024-02-23T03:50:23;0.90;;;0.53;;
13693;SDS011;6919;52.344;14.518;2024-02-23T03:52:51;0.40;;;0.40;;
13693;SDS011;6919;52.344;14.518;2024-02-23T03:55:20;0.37;;;0.37;;
13693;SDS011;6919;52.344;14.518;2024-02-23T03:57:48;0.40;;;0.37;;
13693;SDS011;6919;52.344;14.518;2024-02-23T04:00:17;0.30;;;0.30;;
13693;SDS011;6919;52.344;14.518;2024-02-23T04:02:48;1.70;;;0.70;;
13693;SDS011;6919;52.344;14.518;2024-02-23T04:05:16;0.63;;;0.33;;
13693;SDS011;6919;52.344;14.518;2024-02-23T04:07:45;0.93;;;0.50;;
13693;SDS011;6919;52.344;14.518;2024-02-23T04:10:13;0.60;;;0.40;;
13693;SDS011;6919;52.344;14.518;2024-02-23T04:12:42;2.20;;;0.60;;
13693;SDS011;6919;52.344;14.518;2024-02-23T04:15:11;0.30;;;0.30;;
13693;SDS011;6919;52.344;14.518;2024-02-23T04:17:40;0.40;;;0.40;;
13693;SDS011;6919;52.344;14.518;2024-02-23T04:20:10;1.50;;;0.53;;
13693;SDS011;6919;52.344;14.518;2024-02-23T04:22:39;0.40;;;0.37;;
13693;SDS011;6919;52.344;14.518;2024-02-23T04:25:08;0.40;;;0.40;;
13693;SDS011;6919;52.344;14.518;2024-02-23T04:27:36;0.20;;;0.20;;
13693;SDS011;6919;52.344;14.518;2024-02-23T04:30:05;0.40;;;0.40;;
13693;SDS011;6919;52.344;14.518;2024-02-23T04:32:35;1.03;;;0.30;;
13693;SDS011;6919;52.344;14.518;2024-02-23T04:35:03;3.40;;;0.43;;
13693;SDS011;6919;52.344;14.518;2024-02-23T04:37:34;0.67;;;0.50;;
13693;SDS011;6919;52.344;14.518;2024-02-23T04:40:03;1.10;;;0.43;;
13693;SDS011;6919;52.344;14.518;2024-02-23T04:42:32;0.47;;;0.47;;
13693;SDS011;6919;52.344;14.518;2024-02-23T04:45:01;0.60;;;0.60;;
13693;SDS011;6919;52.344;14.518;2024-02-23T04:47:29;0.30;;;0.30;;
13693;SDS011;6919;52.344;14.518;2024-02-23T04:49:58;0.60;;;0.43;;
13693;SDS011;6919;52.344;14.518;2024-02-23T04:52:29;0.67;;;0.50;;
13693;SDS011;6919;52.344;14.518;2024-02-23T04:54:58;0.30;;;0.30;;
13693;SDS011;6919;52.344;14.518;2024-02-23T04:57:27;3.77;;;0.50;;
13693;SDS011;6919;52.344;14.518;2024-02-23T04:59:55;0.30;;;0.30;;
13693;SDS011;6919;52.344;14.518;2024-02-23T05:02:24;1.13;;;0.50;;
13693;SDS011;6919;52.344;14.518;2024-02-23T05:04:55;1.33;;;0.50;;
13693;SDS011;6919;52.344;14.518;2024-02-23T05:07:24;0.83;;;0.40;;
13693;SDS011;6919;52.344;14.518;2024-02-23T05:09:52;1.20;;;0.43;;
13693;SDS011;6919;52.344;14.518;2024-02-23T05:12:21;0.60;;;0.50;;
13693;SDS011;6919;52.344;14.518;2024-02-23T05:14:50;0.30;;;0.30;;
13693;SDS011;6919;52.344;14.518;2024-02-23T05:17:18;0.97;;;0.50;;
13693;SDS011;6919;52.344;14.518;2024-02-23T05:19:46;1.07;;;0.40;;
13693;SDS011;6919;52.344;14.518;2024-02-23T05:22:15;1.03;;;0.50;;
13693;SDS011;6919;52.344;14.518;2024-02-23T05:24:43;2.17;;;0.37;;
13693;SDS011;6919;52.344;14.518;2024-02-23T05:27:11;1.60;;;0.60;;
13693;SDS011;6919;52.344;14.518;2024-02-23T05:29:41;1.23;;;0.57;;
13693;SDS011;6919;52.344;14.518;2024-02-23T05:32:09;3.70;;;0.60;;
13693;SDS011;6919;52.344;14.518;2024-02-23T05:34:38;2.00;;;0.50;;
13693;SDS011;6919;52.344;14.518;2024-02-23T05:37:07;0.70;;;0.60;;
13693;SDS011;6919;52.344;14.518;2024-02-23T05:39:36;0.27;;;0.27;;
13693;SDS011;6919;52.344;14.518;2024-02-23T05:42:04;0.30;;;0.30;;
13693;SDS011;6919;52.344;14.518;2024-02-23T05:44:33;0.37;;;0.37;;
13693;SDS011;6919;52.344;14.518;2024-02-23T05:47:03;2.40;;;0.83;;
13693;SDS011;6919;52.344;14.518;2024-02-23T05:49:31;0.57;;;0.30;;
13693;SDS011;6919;52.344;14.518;2024-02-23T05:52:01;0.40;;;0.40;;
13693;SDS011;6919;52.344;14.518;2024-02-23T05:54:30;1.60;;;0.40;;
13693;SDS011;6919;52.344;14.518;2024-02-23T05:56:58;1.23;;;0.70;;
13693;SDS011;6919;52.344;14.518;2024-02-23T05:59:27;0.53;;;0.47;;
13693;SDS011;6919;52.344;14.518;2024-02-23T06:01:55;2.30;;;0.70;;
13693;SDS011;6919;52.344;14.518;2024-02-23T06:04:26;0.40;;;0.40;;
13693;SDS011;6919;52.344;14.518;2024-02-23T06:06:55;4.50;;;0.43;;
13693;SDS011;6919;52.344;14.518;2024-02-23T06:09:23;0.73;;;0.37;;
13693;SDS011;6919;52.344;14.518;2024-02-23T06:11:51;0.73;;;0.67;;
13693;SDS011;6919;52.344;14.518;2024-02-23T06:14:20;0.33;;;0.30;;
13693;SDS011;6919;52.344;14.518;2024-02-23T06:16:49;0.40;;;0.40;;
13693;SDS011;6919;52.344;14.518;2024-02-23T06:19:18;1.60;;;0.50;;
13693;SDS011;6919;52.344;14.518;2024-02-23T06:21:48;0.67;;;0.60;;
13693;SDS011;6919;52.344;14.518;2024-02-23T06:24:17;1.97;;;0.53;;
13693;SDS011;6919;52.344;14.518;2024-02-23T06:26:46;3.20;;;0.67;;
13693;SDS011;6919;52.344;14.518;2024-02-23T06:29:15;0.40;;;0.40;;
13693;SDS011;6919;52.344;14.518;2024-02-23T06:31:43;0.40;;;0.40;;
13693;SDS011;6919;52.344;14.518;2024-02-23T06:34:15;0.60;;;0.60;;
13693;SDS011;6919;52.344;14.518;2024-02-23T06:36:44;3.07;;;0.70;;
13693;SDS011;6919;52.344;14.518;2024-02-23T06:39:13;0.60;;;0.60;;
13693;SDS011;6919;52.344;14.518;2024-02-23T06:41:44;1.57;;;0.90;;
13693;SDS011;6919;52.344;14.518;2024-02-23T06:44:12;0.60;;;0.50;;
13693;SDS011;6919;52.344;14.518;2024-02-23T06:46:41;0.93;;;0.60;;
13693;SDS011;6919;52.344;14.518;2024-02-23T06:49:10;1.23;;;0.70;;
13693;SDS011;6919;52.344;14.518;2024-02-23T06:51:39;0.80;;;0.63;;
13693;SDS011;6919;52.344;14.518;2024-02-23T06:54:08;1.20;;;0.80;;
13693;SDS011;6919;52.344;14.518;2024-02-23T06:56:38;1.10;;;0.57;;
13693;SDS011;6919;52.344;14.518;2024-02-23T06:59:06;1.23;;;0.80;;
13693;SDS011;6919;52.344;14.518;2024-02-23T07:01:35;1.13;;;0.50;;
13693;SDS011;6919;52.344;14.518;2024-02-23T07:04:06;0.93;;;0.47;;
13693;SDS011;6919;52.344;14.518;2024-02-23T07:06:34;0.50;;;0.30;;
13693;SDS011;6919;52.344;14.518;2024-02-23T07:09:03;0.63;;;0.57;;
13693;SDS011;6919;52.344;14.518;2024-02-23T07:11:32;0.50;;;0.50;;
13693;SDS011;6919;52.344;14.518;2024-02-23T07:14:01;1.10;;;0.40;;
13693;SDS011;6919;52.344;14.518;2024-02-23T07:16:30;0.33;;;0.30;;
13693;SDS011;6919;52.344;14.518;2024-02-23T07:18:58;0.77;;;0.50;;
13693;SDS011;6919;52.344;14.518;2024-02-23T07:21:26;0.83;;;0.37;;
13693;SDS011;6919;52.344;14.518;2024-02-23T07:23:54;0.50;;;0.50;;
13693;SDS011;6919;52.344;14.518;2024-02-23T07:26:23;0.67;;;0.50;;
13693;SDS011;6919;52.344;14.518;2024-02-23T07:28:51;1.33;;;0.43;;
13693;SDS011;6919;52.344;14.518;2024-02-23T07:31:21;0.97;;;0.70;;
13693;SDS011;6919;52.344;14.518;2024-02-23T07:33:49;2.63;;;0.50;;
13693;SDS011;6919;52.344;14.518;2024-02-23T07:36:18;0.70;;;0.57;;
13693;SDS011;6919;52.344;14.518;2024-02-23T07:38:47;3.20;;;0.70;;
13693;SDS011;6919;52.344;14.518;2024-02-23T07:41:15;0.80;;;0.60;;
13693;SDS011;6919;52.344;14.518;2024-02-23T07:43:44;1.33;;;0.70;;
13693;SDS011;6919;52.344;14.518;2024-02-23T07:46:12;1.07;;;0.63;;
13693;SDS011;6919;52.344;14.518;2024-02-23T07:48:44;0.40;;;0.40;;
13693;SDS011;6919;52.344;14.518;2024-02-23T07:51:14;3.90;;;0.67;;
13693;SDS011;6919;52.344;14.518;2024-02-23T07:53:42;0.73;;;0.57;;
13693;SDS011;6919;52.344;14.518;2024-02-23T07:56:11;1.40;;;0.80;;
13693;SDS011;6919;52.344;14.518;2024-02-23T07:58:39;1.73;;;0.57;;
13693;SDS011;6919;52.344;14.518;2024-02-23T08:01:08;0.97;;;0.53;;
13693;SDS011;6919;52.344;14.518;2024-02-23T08:03:36;0.40;;;0.40;;
13693;SDS011;6919;52.344;14.518;2024-02-23T08:06:09;0.60;;;0.50;;
13693;SDS011;6919;52.344;14.518;2024-02-23T08:08:39;2.40;;;0.77;;
13693;SDS011;6919;52.344;14.518;2024-02-23T08:11:08;0.43;;;0.40;;
13693;SDS011;6919;52.344;14.518;2024-02-23T08:13:36;5.80;;;0.67;;
13693;SDS011;6919;52.344;14.518;2024-02-23T08:16:04;0.60;;;0.60;;
13693;SDS011;6919;52.344;14.518;2024-02-23T08:18:33;1.00;;;0.63;;
13693;SDS011;6919;52.344;14.518;2024-02-23T08:21:03;11.63;;;5.97;;
13693;SDS011;6919;52.344;14.518;2024-02-23T08:23:33;7.40;;;3.37;;
13693;SDS011;6919;52.344;14.518;2024-02-23T08:26:02;47.03;;;25.13;;
13693;SDS011;6919;52.344;14.518;2024-02-23T08:28:30;7.77;;;4.93;;
13693;SDS011;6919;52.344;14.518;2024-02-23T08:30:58;1.30;;;0.67;;
13693;SDS011;6919;52.344;14.518;2024-02-23T08:33:27;3.27;;;2.57;;
13693;SDS011;6919;52.344;14.518;2024-02-23T08:35:55;15.00;;;11.77;;
13693;SDS011;6919;52.344;14.518;2024-02-23T08:38:23;36.83;;;24.63;;
13693;SDS011;6919;52.344;14.518;2024-02-23T08:40:53;11.70;;;6.13;;
13693;SDS011;6919;52.344;14.518;2024-02-23T08:43:21;20.90;;;10.63;;
13693;SDS011;6919;52.344;14.518;2024-02-23T08:45:49;29.90;;;10.60;;
13693;SDS011;6919;52.344;14.518;2024-02-23T08:48:18;43.27;;;16.67;;
13693;SDS011;6919;52.344;14.518;2024-02-23T08:50:46;16.83;;;5.43;;
13693;SDS011;6919;52.344;14.518;2024-02-23T08:53:14;12.87;;;4.13;;
13693;SDS011;6919;52.344;14.518;2024-02-23T08:55:43;62.63;;;19.73;;
13693;SDS011;6919;52.344;14.518;2024-02-23T08:58:13;30.80;;;11.00;;
13693;SDS011;6919;52.344;14.518;2024-02-23T09:00:41;8.13;;;3.57;;
13693;SDS011;6919;52.344;14.518;2024-02-23T09:03:09;27.73;;;10.13;;
13693;SDS011;6919;52.344;14.518;2024-02-23T09:05:37;45.43;;;14.50;;
13693;SDS011;6919;52.344;14.518;2024-02-23T09:08:07;16.80;;;6.13;;
13693;SDS011;6919;52.344;14.518;2024-02-23T09:10:35;32.13;;;10.40;;
13693;SDS011;6919;52.344;14.518;2024-02-23T09:13:03;14.03;;;5.70;;
13693;SDS011;6919;52.344;14.518;2024-02-23T09:15:33;15.83;;;6.07;;
13693;SDS011;6919;52.344;14.518;2024-02-23T09:18:01;20.83;;;7.90;;
13693;SDS011;6919;52.344;14.518;2024-02-23T09:20:30;10.80;;;4.30;;
13693;SDS011;6919;52.344;14.518;2024-02-23T09:22:59;10.23;;;4.10;;
13693;SDS011;6919;52.344;14.518;2024-02-23T09:25:27;29.10;;;10.60;;
13693;SDS011;6919;52.344;14.518;2024-02-23T09:27:56;47.40;;;14.47;;
13693;SDS011;6919;52.344;14.518;2024-02-23T09:30:25;32.37;;;10.73;;
13693;SDS011;6919;52.344;14.518;2024-02-23T09:32:55;23.63;;;7.37;;
13693;SDS011;6919;52.344;14.518;2024-02-23T09:35:23;45.60;;;15.77;;
13693;SDS011;6919;52.344;14.518;2024-02-23T09:37:51;13.53;;;5.80;;
13693;SDS011;6919;52.344;14.518;2024-02-23T09:40:20;17.90;;;5.80;;
13693;SDS011;6919;52.344;14.518;2024-02-23T09:42:48;14.93;;;4.70;;
13693;SDS011;6919;52.344;14.518;2024-02-23T09:45:24;16.43;;;5.33;;
13693;SDS011;6919;52.344;14.518;2024-02-23T09:47:55;21.70;;;9.50;;
13693;SDS011;6919;52.344;14.518;2024-02-23T09:50:25;11.60;;;5.80;;
13693;SDS011;6919;52.344;14.518;2024-02-23T09:52:56;8.80;;;3.83;;
13693;SDS011;6919;52.344;14.518;2024-02-23T09:55:28;10.27;;;4.50;;
13693;SDS011;6919;52.344;14.518;2024-02-23T09:57:57;17.13;;;7.00;;
13693;SDS011;6919;52.344;14.518;2024-02-23T10:00:26;19.27;;;6.90;;
13693;SDS011;6919;52.344;14.518;2024-02-23T10:02:58;18.13;;;4.87;;
13693;SDS011;6919;52.344;14.518;2024-02-23T10:05:29;16.80;;;7.33;;
13693;SDS011;6919;52.344;14.518;2024-02-23T10:08:04;15.30;;;7.33;;
13693;SDS011;6919;52.344;14.518;2024-02-23T10:10:33;9.93;;;4.67;;
13693;SDS011;6919;52.344;14.518;2024-02-23T10:13:05;11.87;;;7.07;;
13693;SDS011;6919;52.344;14.518;2024-02-23T10:15:34;8.60;;;3.93;;
13693;SDS011;6919;52.344;14.518;2024-02-23T10:18:03;14.60;;;7.67;;
13693;SDS011;6919;52.344;14.518;2024-02-23T10:20:32;5.03;;;2.33;;
13693;SDS011;6919;52.344;14.518;2024-02-23T10:23:01;10.53;;;5.93;;
13693;SDS011;6919;52.344;14.518;2024-02-23T10:25:29;4.93;;;2.27;;
13693;SDS011;6919;52.344;14.518;2024-02-23T10:28:01;3.00;;;1.97;;
13693;SDS011;6919;52.344;14.518;2024-02-23T10:30:29;15.43;;;6.30;;
13693;SDS011;6919;52.344;14.518;2024-02-23T10:32:58;16.87;;;7.23;;
13693;SDS011;6919;52.344;14.518;2024-02-23T10:35:28;26.87;;;11.83;;
13693;SDS011;6919;52.344;14.518;2024-02-23T10:38:01;18.03;;;7.60;;
13693;SDS011;6919;52.344;14.518;2024-02-23T10:40:36;11.17;;;4.70;;
13693;SDS011;6919;52.344;14.518;2024-02-23T10:43:08;8.47;;;3.50;;
13693;SDS011;6919;52.344;14.518;2024-02-23T10:45:42;12.60;;;5.17;;
13693;SDS011;6919;52.344;14.518;2024-02-23T10:48:12;5.97;;;2.70;;
13693;SDS011;6919;52.344;14.518;2024-02-23T10:50:44;12.53;;;4.77;;
13693;SDS011;6919;52.344;14.518;2024-02-23T10:53:12;16.00;;;8.13;;
13693;SDS011;6919;52.344;14.518;2024-02-23T10:55:44;2.50;;;1.50;;
13693;SDS011;6919;52.344;14.518;2024-02-23T10:58:16;3.37;;;2.57;;
13693;SDS011;6919;52.344;14.518;2024-02-23T11:00:44;11.47;;;5.50;;
13693;SDS011;6919;52.344;14.518;2024-02-23T11:03:12;4.23;;;2.40;;
13693;SDS011;6919;52.344;14.518;2024-02-23T11:05:45;1.10;;;0.70;;
13693;SDS011;6919;52.344;14.518;2024-02-23T11:08:17;3.30;;;1.60;;
13693;SDS011;6919;52.344;14.518;2024-02-23T11:10:48;7.80;;;3.23;;
13693;SDS011;6919;52.344;14.518;2024-02-23T11:13:23;7.00;;;3.57;;
13693;SDS011;6919;52.344;14.518;2024-02-23T11:16:01;5.60;;;2.30;;
13693;SDS011;6919;52.344;14.518;2024-02-23T11:18:30;6.97;;;2.83;;
13693;SDS011;6919;52.344;14.518;2024-02-23T11:21:03;38.47;;;14.70;;
13693;SDS011;6919;52.344;14.518;2024-02-23T11:23:40;8.00;;;3.60;;
13693;SDS011;6919;52.344;14.518;2024-02-23T11:26:09;7.20;;;3.40;;
13693;SDS011;6919;52.344;14.518;2024-02-23T11:28:41;4.83;;;2.37;;
13693;SDS011;6919;52.344;14.518;2024-02-23T11:31:12;1.57;;;0.93;;
13693;SDS011;6919;52.344;14.518;2024-02-23T11:33:47;20.23;;;6.13;;
13693;SDS011;6919;52.344;14.518;2024-02-23T11:36:27;15.90;;;7.50;;
13693;SDS011;6919;52.344;14.518;2024-02-23T11:38:58;14.93;;;6.13;;
13693;SDS011;6919;52.344;14.518;2024-02-23T11:41:28;9.17;;;4.93;;
13693;SDS011;6919;52.344;14.518;2024-02-23T11:43:57;7.07;;;2.90;;
13693;SDS011;6919;52.344;14.518;2024-02-23T11:46:25;4.43;;;2.37;;
13693;SDS011;6919;52.344;14.518;2024-02-23T11:48:54;4.70;;;2.43;;
13693;SDS011;6919;52.344;14.518;2024-02-23T11:51:23;3.13;;;1.30;;
13693;SDS011;6919;52.344;14.518;2024-02-23T11:53:55;2.00;;;1.13;;
13693;SDS011;6919;52.344;14.518;2024-02-23T11:56:26;5.57;;;2.57;;
13693;SDS011;6919;52.344;14.518;2024-02-23T11:58:56;3.80;;;2.17;;
13693;SDS011;6919;52.344;14.518;2024-02-23T12:01:25;5.17;;;2.97;;
13693;SDS011;6919;52.344;14.518;2024-02-23T12:03:57;5.03;;;3.53;;
13693;SDS011;6919;52.344;14.518;2024-02-23T12:06:25;6.40;;;3.17;;
13693;SDS011;6919;52.344;14.518;2024-02-23T12:09:00;5.87;;;2.03;;
13693;SDS011;6919;52.344;14.518;2024-02-23T12:11:29;7.67;;;3.33;;
13693;SDS011;6919;52.344;14.518;2024-02-23T12:13:57;3.80;;;1.77;;
13693;SDS011;6919;52.344;14.518;2024-02-23T12:16:28;4.23;;;2.37;;
13693;SDS011;6919;52.344;14.518;2024-02-23T12:18:57;3.37;;;2.10;;
13693;SDS011;6919;52.344;14.518;2024-02-23T12:21:25;2.83;;;1.20;;
13693;SDS011;6919;52.344;14.518;2024-02-23T12:23:53;3.60;;;2.10;;
13693;SDS011;6919;52.344;14.518;2024-02-23T12:26:23;1.20;;;1.00;;
13693;SDS011;6919;52.344;14.518;2024-02-23T12:28:52;2.17;;;0.67;;
13693;SDS011;6919;52.344;14.518;2024-02-23T12:31:27;1.37;;;0.87;;
13693;SDS011;6919;52.344;14.518;2024-02-23T12:33:56;1.37;;;0.77;;
13693;SDS011;6919;52.344;14.518;2024-02-23T12:36:28;2.97;;;0.87;;
13693;SDS011;6919;52.344;14.518;2024-02-23T12:38:57;1.83;;;0.80;;
13693;SDS011;6919;52.344;14.518;2024-02-23T12:41:26;2.23;;;1.03;;
13693;SDS011;6919;52.344;14.518;2024-02-23T12:43:55;1.87;;;0.77;;
13693;SDS011;6919;52.344;14.518;2024-02-23T12:46:23;0.60;;;0.60;;
13693;SDS011;6919;52.344;14.518;2024-02-23T12:48:51;0.93;;;0.70;;
13693;SDS011;6919;52.344;14.518;2024-02-23T12:51:20;2.03;;;1.10;;
13693;SDS011;6919;52.344;14.518;2024-02-23T12:53:53;2.53;;;1.40;;
13693;SDS011;6919;52.344;14.518;2024-02-23T12:56:21;1.57;;;0.70;;
13693;SDS011;6919;52.344;14.518;2024-02-23T12:58:52;0.90;;;0.30;;
13693;SDS011;6919;52.344;14.518;2024-02-23T13:01:21;0.97;;;0.60;;
13693;SDS011;6919;52.344;14.518;2024-02-23T13:03:49;1.80;;;0.60;;
13693;SDS011;6919;52.344;14.518;2024-02-23T13:06:18;2.63;;;1.03;;
13693;SDS011;6919;52.344;14.518;2024-02-23T13:08:46;1.87;;;0.60;;
13693;SDS011;6919;52.344;14.518;2024-02-23T13:11:15;0.77;;;0.43;;
13693;SDS011;6919;52.344;14.518;2024-02-23T13:13:44;0.60;;;0.57;;
13693;SDS011;6919;52.344;14.518;2024-02-23T13:16:14;1.20;;;0.40;;
13693;SDS011;6919;52.344;14.518;2024-02-23T13:18:42;1.40;;;0.80;;
13693;SDS011;6919;52.344;14.518;2024-02-23T13:21:13;1.83;;;0.90;;
13693;SDS011;6919;52.344;14.518;2024-02-23T13:23:42;0.87;;;0.50;;
13693;SDS011;6919;52.344;14.518;2024-02-23T13:26:10;1.40;;;0.60;;
13693;SDS011;6919;52.344;14.518;2024-02-23T13:28:41;0.57;;;0.50;;
13693;SDS011;6919;52.344;14.518;2024-02-23T13:31:10;2.43;;;1.00;;
13693;SDS011;6919;52.344;14.518;2024-02-23T13:33:43;2.53;;;0.93;;
13693;SDS011;6919;52.344;14.518;2024-02-23T13:36:12;1.90;;;0.90;;
13693;SDS011;6919;52.344;14.518;2024-02-23T13:38:41;2.50;;;0.90;;
13693;SDS011;6919;52.344;14.518;2024-02-23T13:41:09;1.20;;;0.80;;
13693;SDS011;6919;52.344;14.518;2024-02-23T13:43:39;2.80;;;0.77;;
13693;SDS011;6919;52.344;14.518;2024-02-23T13:46:07;3.63;;;0.90;;
13693;SDS011;6919;52.344;14.518;2024-02-23T13:48:36;1.50;;;1.10;;
13693;SDS011;6919;52.344;14.518;2024-02-23T13:51:07;1.73;;;1.00;;
13693;SDS011;6919;52.344;14.518;2024-02-23T13:53:35;5.40;;;2.30;;
13693;SDS011;6919;52.344;14.518;2024-02-23T13:56:04;7.17;;;1.13;;
13693;SDS011;6919;52.344;14.518;2024-02-23T13:58:33;1.33;;;0.90;;
13693;SDS011;6919;52.344;14.518;2024-02-23T14:01:01;1.53;;;0.90;;
13693;SDS011;6919;52.344;14.518;2024-02-23T14:03:30;0.90;;;0.50;;
13693;SDS011;6919;52.344;14.518;2024-02-23T14:05:59;1.30;;;0.60;;
13693;SDS011;6919;52.344;14.518;2024-02-23T14:08:29;1.50;;;0.73;;
13693;SDS011;6919;52.344;14.518;2024-02-23T14:11:00;3.40;;;0.70;;
13693;SDS011;6919;52.344;14.518;2024-02-23T14:13:29;2.57;;;0.97;;
13693;SDS011;6919;52.344;14.518;2024-02-23T14:15:57;4.73;;;0.77;;
13693;SDS011;6919;52.344;14.518;2024-02-23T14:18:27;4.83;;;1.10;;
13693;SDS011;6919;52.344;14.518;2024-02-23T14:20:55;1.50;;;1.17;;
13693;SDS011;6919;52.344;14.518;2024-02-23T14:23:24;1.47;;;1.00;;
13693;SDS011;6919;52.344;14.518;2024-02-23T14:25:54;0.73;;;0.60;;
13693;SDS011;6919;52.344;14.518;2024-02-23T14:28:22;3.50;;;0.90;;
13693;SDS011;6919;52.344;14.518;2024-02-23T14:30:50;1.93;;;0.83;;
13693;SDS011;6919;52.344;14.518;2024-02-23T14:33:20;2.80;;;0.70;;
13693;SDS011;6919;52.344;14.518;2024-02-23T14:35:49;2.43;;;0.70;;
13693;SDS011;6919;52.344;14.518;2024-02-23T14:38:17;1.73;;;0.90;;
13693;SDS011;6919;52.344;14.518;2024-02-23T14:40:46;1.03;;;0.77;;
13693;SDS011;6919;52.344;14.518;2024-02-23T14:43:16;1.37;;;0.60;;
13693;SDS011;6919;52.344;14.518;2024-02-23T14:45:46;2.83;;;0.50;;
13693;SDS011;6919;52.344;14.518;2024-02-23T14:48:15;1.43;;;0.43;;
13693;SDS011;6919;52.344;14.518;2024-02-23T14:50:43;1.70;;;0.73;;
13693;SDS011;6919;52.344;14.518;2024-02-23T14:53:12;1.48;;;0.77;;
13693;SDS011;6919;52.344;14.518;2024-02-23T14:55:42;1.20;;;0.60;;
13693;SDS011;6919;52.344;14.518;2024-02-23T14:58:10;2.57;;;0.80;;